Time;durP1;ratioP1;P1;durP2;ratioP2;P2;SDS_P1;SDS_P2;PMS_P1;PMS_P2;Temp;Humidity;BMP_temperature;BMP_pressure;BME280_temperature;BME280_humidity;BME280_pressure;Samples;Min_cycle;Max_cycle;Signal;HPM_P1;HPM_P2
2022/02/06 00:01:23;;;;;;;6.93;2.28;;;;;;;;;;5033687;28;20406;-48
2022/02/06 00:03:49;;;;;;;4.00;2.40;;;;;;;;;;5033812;28;20199;-49
2022/02/06 00:06:15;;;;;;;7.93;2.63;;;;;;;;;;5033726;28;20398;-50
2022/02/06 00:08:41;;;;;;;7.00;1.95;;;;;;;;;;5033833;28;20414;-48
2022/02/06 00:11:07;;;;;;;2.30;2.10;;;;;;;;;;5033702;28;20179;-49
2022/02/06 00:13:33;;;;;;;6.13;2.30;;;;;;;;;;5032776;28;20427;-49
2022/02/06 00:15:59;;;;;;;3.38;2.00;;;;;;;;;;5033800;28;20410;-48
2022/02/06 00:18:25;;;;;;;7.20;2.63;;;;;;;;;;5033612;28;20187;-48
2022/02/06 00:20:56;;;;;;;4.20;2.27;;;;;;;;;;5033535;28;20561;-49
2022/02/06 00:23:24;;;;;;;5.97;2.42;;;;;;;;;;5033276;28;20957;-48
2022/02/06 00:26:02;;;;;;;3.05;2.22;;;;;;;;;;5033585;28;20160;-48
2022/02/06 00:38:06;;;;;;;3.13;2.35;;;;;;;;;;5035608;28;20241;-49
2022/02/06 00:39:09;;;;;;;2.63;2.40;;;;;;;;;;5037401;28;20570;-49
2022/02/06 00:41:35;;;;;;;5.80;2.53;;;;;;;;;;5038989;28;20173;-49
2022/02/06 00:44:03;;;;;;;3.45;2.58;;;;;;;;;;5037955;28;20465;-49
2022/02/06 00:46:32;;;;;;;3.67;2.50;;;;;;;;;;5037227;28;20163;-50
2022/02/06 00:49:02;;;;;;;4.85;2.83;;;;;;;;;;5036012;28;20414;-49
2022/02/06 00:51:39;;;;;;;9.35;3.72;;;;;;;;;;5036040;28;20163;-49
2022/02/06 00:54:05;;;;;;;3.65;2.55;;;;;;;;;;5035513;28;20168;-49
2022/02/06 00:56:31;;;;;;;7.80;3.17;;;;;;;;;;5035582;28;20172;-49
2022/02/06 00:58:57;;;;;;;4.13;2.90;;;;;;;;;;5036565;28;20940;-49
2022/02/06 01:01:23;;;;;;;3.47;2.70;;;;;;;;;;5036250;28;20934;-49
2022/02/06 01:03:49;;;;;;;9.43;3.20;;;;;;;;;;5034747;28;20326;-48
2022/02/06 01:06:15;;;;;;;7.73;3.30;;;;;;;;;;5035711;28;20397;-49
2022/02/06 01:08:41;;;;;;;8.17;3.40;;;;;;;;;;5035796;28;20953;-49
2022/02/06 01:11:10;;;;;;;7.00;2.90;;;;;;;;;;5035652;28;20395;-49
2022/02/06 01:14:44;;;;;;;5.10;3.00;;;;;;;;;;5035752;28;20168;-49
2022/02/06 01:16:58;;;;;;;6.03;3.83;;;;;;;;;;5022069;28;20184;-48
2022/02/06 01:19:29;;;;;;;10.18;4.35;;;;;;;;;;5035056;28;20188;-48
2022/02/06 01:24:30;;;;;;;5.07;3.30;;;;;;;;;;5035241;28;20230;-49
2022/02/06 01:27:06;;;;;;;7.15;3.38;;;;;;;;;;5035357;28;20416;-50
2022/02/06 01:29:42;;;;;;;10.75;4.05;;;;;;;;;;5034255;28;20206;-50
2022/02/06 01:32:13;;;;;;;4.15;2.83;;;;;;;;;;5035038;28;20179;-52
2022/02/06 01:34:51;;;;;;;7.77;2.90;;;;;;;;;;5036174;28;20168;-50
2022/02/06 01:37:30;;;;;;;11.60;3.07;;;;;;;;;;5036840;28;20785;-50
2022/02/06 01:42:50;;;;;;;10.87;3.60;;;;;;;;;;5037726;28;20176;-49
2022/02/06 02:07:39;;;;;;;7.55;3.42;;;;;;;;;;5001979;28;20177;-50
2022/02/06 02:48:02;;;;;;;6.05;3.75;;;;;;;;;;5022941;28;20569;-49
2022/02/06 02:50:31;;;;;;;2.85;2.65;;;;;;;;;;5035145;28;20172;-49
2022/02/06 03:05:37;;;;;;;4.88;3.50;;;;;;;;;;5017132;28;20415;-48
2022/02/06 03:08:05;;;;;;;7.72;3.35;;;;;;;;;;5016580;28;20164;-48
2022/02/06 03:10:32;;;;;;;9.40;3.67;;;;;;;;;;5030298;28;20263;-50
2022/02/06 03:13:00;;;;;;;16.40;3.53;;;;;;;;;;5035687;28;20179;-49
2022/02/06 03:15:41;;;;;;;8.67;3.70;;;;;;;;;;5035527;28;20407;-49
2022/02/06 03:18:14;;;;;;;6.83;3.87;;;;;;;;;;5035795;28;20406;-48
2022/02/06 03:20:40;;;;;;;7.47;4.50;;;;;;;;;;5035209;28;20446;-49
2022/02/06 03:23:08;;;;;;;4.95;3.30;;;;;;;;;;5035279;28;20526;-48
2022/02/06 03:25:36;;;;;;;7.30;3.30;;;;;;;;;;5034110;28;20163;-48
2022/02/06 03:28:02;;;;;;;6.10;3.72;;;;;;;;;;5035548;28;20426;-49
2022/02/06 03:30:30;;;;;;;9.80;3.47;;;;;;;;;;5036743;28;20770;-48
2022/02/06 03:32:56;;;;;;;3.90;3.50;;;;;;;;;;5036334;28;20165;-49
2022/02/06 03:35:23;;;;;;;17.83;4.32;;;;;;;;;;5036479;28;20437;-48
2022/02/06 03:37:49;;;;;;;8.53;3.90;;;;;;;;;;5036526;28;20172;-49
2022/02/06 03:40:22;;;;;;;4.33;3.77;;;;;;;;;;5034965;28;20430;-49
2022/02/06 03:43:15;;;;;;;6.82;3.92;;;;;;;;;;5035790;28;20412;-48
2022/02/06 03:45:50;;;;;;;9.48;4.15;;;;;;;;;;5035905;28;20624;-50
2022/02/06 03:48:21;;;;;;;9.10;3.55;;;;;;;;;;5035998;28;20183;-48
2022/02/06 03:50:51;;;;;;;7.30;3.47;;;;;;;;;;5035352;28;20362;-48
2022/02/06 03:53:19;;;;;;;8.63;3.97;;;;;;;;;;5036160;28;20398;-48
2022/02/06 03:55:47;;;;;;;6.47;3.33;;;;;;;;;;5035917;28;20408;-49
2022/02/06 03:58:13;;;;;;;7.63;3.60;;;;;;;;;;5036574;28;20410;-48
2022/02/06 04:00:39;;;;;;;16.63;3.63;;;;;;;;;;5035286;28;20406;-48
2022/02/06 04:03:05;;;;;;;3.50;3.20;;;;;;;;;;5037017;28;20511;-47
2022/02/06 04:05:31;;;;;;;8.93;4.13;;;;;;;;;;5039286;28;20659;-48
2022/02/06 04:07:57;;;;;;;5.50;3.87;;;;;;;;;;5038755;28;20395;-49
2022/02/06 04:10:30;;;;;;;8.87;4.13;;;;;;;;;;5038381;28;20423;-50
2022/02/06 04:12:58;;;;;;;6.07;3.20;;;;;;;;;;5038677;28;20468;-50
2022/02/06 04:15:28;;;;;;;6.27;4.50;;;;;;;;;;5038834;28;20459;-48
2022/02/06 04:18:10;;;;;;;8.37;3.60;;;;;;;;;;5038990;28;20410;-48
2022/02/06 04:20:36;;;;;;;7.73;3.30;;;;;;;;;;5036756;28;20437;-48
2022/02/06 04:23:02;;;;;;;6.97;3.23;;;;;;;;;;5038715;28;21049;-48
2022/02/06 04:25:28;;;;;;;3.10;2.87;;;;;;;;;;5038225;28;20403;-48
2022/02/06 04:27:54;;;;;;;5.33;3.03;;;;;;;;;;5038126;28;20494;-48
2022/02/06 04:30:20;;;;;;;4.07;2.87;;;;;;;;;;5037484;28;20497;-48
2022/02/06 04:32:46;;;;;;;7.13;3.20;;;;;;;;;;5038210;28;20493;-48
2022/02/06 04:35:17;;;;;;;6.53;3.03;;;;;;;;;;5038349;28;20444;-47
2022/02/06 04:38:08;;;;;;;5.10;3.33;;;;;;;;;;5038218;28;20406;-48
2022/02/06 05:11:38;;;;;;;4.13;2.80;;;;;;;;;;5019388;28;20418;-48
2022/02/06 05:32:32;;;;;;;5.80;3.40;;;;;;;;;;5015368;28;20194;-47
2022/02/06 05:34:45;;;;;;;9.20;3.80;;;;;;;;;;5014979;28;20422;-48
2022/02/06 05:37:11;;;;;;;5.87;3.50;;;;;;;;;;5015911;28;21056;-48
2022/02/06 05:39:37;;;;;;;6.50;4.33;;;;;;;;;;5015049;28;20439;-49
2022/02/06 05:42:03;;;;;;;5.63;3.27;;;;;;;;;;5013891;28;20416;-48
2022/02/06 05:44:29;;;;;;;6.25;3.83;;;;;;;;;;5013783;28;20464;-48
2022/02/06 05:46:55;;;;;;;4.83;3.73;;;;;;;;;;5014568;28;20266;-50
2022/02/06 05:49:21;;;;;;;8.98;2.95;;;;;;;;;;5014530;28;20416;-49
2022/02/06 05:51:48;;;;;;;3.77;3.10;;;;;;;;;;5031656;28;20648;-49
2022/02/06 05:54:14;;;;;;;6.47;4.23;;;;;;;;;;5032988;28;20439;-49
2022/02/06 05:56:41;;;;;;;5.88;3.80;;;;;;;;;;5033110;28;20422;-48
2022/02/06 05:59:07;;;;;;;5.63;3.97;;;;;;;;;;5033304;28;20191;-48
2022/02/06 06:01:33;;;;;;;3.50;3.20;;;;;;;;;;5033389;28;20168;-48
2022/02/06 06:03:59;;;;;;;3.93;3.17;;;;;;;;;;5033869;28;20210;-49
2022/02/06 06:06:25;;;;;;;5.13;4.07;;;;;;;;;;5033668;28;21045;-49
2022/02/06 06:08:51;;;;;;;3.13;2.93;;;;;;;;;;5033345;28;20919;-48
2022/02/06 06:11:17;;;;;;;6.40;2.83;;;;;;;;;;5033038;28;20405;-48
2022/02/06 06:13:43;;;;;;;3.30;2.93;;;;;;;;;;5033525;28;20416;-47
2022/02/06 06:16:09;;;;;;;5.67;3.77;;;;;;;;;;5032987;28;20413;-49
2022/02/06 06:18:36;;;;;;;7.80;3.97;;;;;;;;;;5033006;28;20465;-49
2022/02/06 06:21:03;;;;;;;4.28;2.60;;;;;;;;;;5031050;28;20828;-48
2022/02/06 06:23:29;;;;;;;2.93;2.73;;;;;;;;;;5031690;28;20196;-48
2022/02/06 06:25:55;;;;;;;5.37;3.77;;;;;;;;;;5033705;28;20434;-48
2022/02/06 06:28:22;;;;;;;2.60;2.40;;;;;;;;;;5033248;28;20399;-48
2022/02/06 06:30:48;;;;;;;5.50;3.85;;;;;;;;;;5034200;28;20407;-48
2022/02/06 06:33:15;;;;;;;5.27;3.57;;;;;;;;;;5031280;28;20172;-48
2022/02/06 06:35:41;;;;;;;2.77;2.57;;;;;;;;;;5031260;28;20477;-48
2022/02/06 06:38:07;;;;;;;3.50;3.20;;;;;;;;;;5031168;28;20513;-48
2022/02/06 06:40:33;;;;;;;6.93;2.83;;;;;;;;;;5031026;28;21077;-48
2022/02/06 06:42:59;;;;;;;3.30;2.53;;;;;;;;;;5031062;28;20962;-48
2022/02/06 06:45:25;;;;;;;5.33;3.20;;;;;;;;;;5031200;28;20818;-48
2022/02/06 06:47:52;;;;;;;6.90;3.20;;;;;;;;;;5031115;28;20495;-48
2022/02/06 06:50:18;;;;;;;6.00;2.90;;;;;;;;;;5029884;28;20541;-48
2022/02/06 06:52:46;;;;;;;3.92;3.58;;;;;;;;;;5031090;28;20403;-48
2022/02/06 06:55:15;;;;;;;2.53;2.33;;;;;;;;;;5031271;28;20156;-48
2022/02/06 06:57:48;;;;;;;6.07;2.40;;;;;;;;;;5031251;28;20882;-48
2022/02/06 07:00:25;;;;;;;7.55;3.28;;;;;;;;;;5031175;28;20688;-49
2022/02/06 07:02:51;;;;;;;3.33;2.70;;;;;;;;;;5031040;28;20995;-48
2022/02/06 07:05:17;;;;;;;6.03;2.50;;;;;;;;;;5031121;28;20190;-48
2022/02/06 07:07:43;;;;;;;4.20;2.25;;;;;;;;;;5031058;28;20241;-47
2022/02/06 07:10:09;;;;;;;3.03;2.60;;;;;;;;;;5030716;28;20187;-49
2022/02/06 07:12:35;;;;;;;3.13;1.87;;;;;;;;;;5030799;28;20402;-48
2022/02/06 07:15:01;;;;;;;4.37;3.00;;;;;;;;;;5030888;28;20763;-48
2022/02/06 07:17:27;;;;;;;2.93;2.70;;;;;;;;;;5030902;28;20489;-48
2022/02/06 07:19:53;;;;;;;5.43;2.83;;;;;;;;;;5029634;28;20546;-48
2022/02/06 07:22:20;;;;;;;3.50;3.20;;;;;;;;;;5029962;28;20442;-48
2022/02/06 07:24:47;;;;;;;4.57;2.83;;;;;;;;;;5030698;28;20504;-48
2022/02/06 07:29:46;;;;;;;3.30;3.10;;;;;;;;;;5030314;28;20953;-48
2022/02/06 07:32:12;;;;;;;4.22;3.10;;;;;;;;;;5030649;28;20170;-48
2022/02/06 07:34:38;;;;;;;5.03;3.00;;;;;;;;;;5030699;28;20176;-47
2022/02/06 07:37:06;;;;;;;7.10;3.20;;;;;;;;;;5030689;28;20399;-48
2022/02/06 07:39:32;;;;;;;6.90;3.33;;;;;;;;;;5033994;28;20801;-48
2022/02/06 07:41:58;;;;;;;4.40;3.13;;;;;;;;;;5034333;28;20406;-48
2022/02/06 07:44:24;;;;;;;5.40;4.00;;;;;;;;;;5034273;28;20538;-48
2022/02/06 07:46:53;;;;;;;3.47;3.27;;;;;;;;;;5034311;28;20418;-48
2022/02/06 07:49:19;;;;;;;7.63;3.77;;;;;;;;;;5033128;28;20446;-48
2022/02/06 07:51:45;;;;;;;6.97;3.20;;;;;;;;;;5034228;28;20456;-49
2022/02/06 07:54:11;;;;;;;7.10;4.00;;;;;;;;;;5034236;28;20774;-48
2022/02/06 07:56:37;;;;;;;5.70;3.53;;;;;;;;;;5034149;28;20410;-48
2022/02/06 07:59:03;;;;;;;3.00;2.70;;;;;;;;;;5033922;28;20434;-48
2022/02/06 08:01:29;;;;;;;3.45;3.15;;;;;;;;;;5034155;28;21060;-48
2022/02/06 08:03:55;;;;;;;3.20;2.80;;;;;;;;;;5029706;28;20269;-48
2022/02/06 08:06:20;;;;;;;4.47;3.50;;;;;;;;;;5033969;28;20436;-48
2022/02/06 08:08:46;;;;;;;6.30;3.00;;;;;;;;;;5034080;28;20422;-48
2022/02/06 08:11:14;;;;;;;3.43;3.13;;;;;;;;;;5033712;28;20403;-48
2022/02/06 08:13:50;;;;;;;9.03;2.70;;;;;;;;;;5034068;28;20891;-48
2022/02/06 08:16:16;;;;;;;2.87;2.67;;;;;;;;;;5033987;28;21040;-48
2022/02/06 08:18:42;;;;;;;4.37;3.13;;;;;;;;;;5032894;28;20950;-48
2022/02/06 08:21:09;;;;;;;3.00;2.40;;;;;;;;;;5033645;28;20409;-48
2022/02/06 08:23:35;;;;;;;4.17;2.60;;;;;;;;;;5033396;28;20871;-48
2022/02/06 08:26:01;;;;;;;5.60;2.50;;;;;;;;;;5033689;28;20460;-48
2022/02/06 08:28:27;;;;;;;2.40;2.20;;;;;;;;;;5033419;28;20442;-48
2022/02/06 08:30:53;;;;;;;2.20;2.10;;;;;;;;;;5033300;28;20169;-48
2022/02/06 08:33:19;;;;;;;1.80;1.70;;;;;;;;;;5033484;28;20967;-48
2022/02/06 08:35:45;;;;;;;2.17;1.97;;;;;;;;;;5033463;28;20410;-49
2022/02/06 08:38:12;;;;;;;6.30;2.00;;;;;;;;;;5033256;28;20434;-48
2022/02/06 08:40:39;;;;;;;2.43;1.80;;;;;;;;;;5033140;28;20399;-48
2022/02/06 08:43:04;;;;;;;2.03;1.93;;;;;;;;;;5033188;28;20454;-48
2022/02/06 08:45:31;;;;;;;3.20;2.60;;;;;;;;;;5033420;28;20399;-48
2022/02/06 08:47:57;;;;;;;2.97;2.20;;;;;;;;;;5033207;28;20439;-48
2022/02/06 08:50:23;;;;;;;3.00;2.70;;;;;;;;;;5031600;28;20456;-48
2022/02/06 08:52:49;;;;;;;2.10;2.00;;;;;;;;;;5032955;28;20495;-48
2022/02/06 08:55:15;;;;;;;8.63;2.87;;;;;;;;;;5033064;28;20919;-49
2022/02/06 08:57:47;;;;;;;3.10;2.27;;;;;;;;;;5033084;28;20894;-47
2022/02/06 09:00:14;;;;;;;3.03;2.37;;;;;;;;;;5032820;28;20411;-48
2022/02/06 09:02:40;;;;;;;2.87;2.60;;;;;;;;;;5033314;28;20911;-48
2022/02/06 09:05:06;;;;;;;2.67;2.53;;;;;;;;;;5032808;28;20455;-48
2022/02/06 09:07:32;;;;;;;3.80;2.13;;;;;;;;;;5032762;28;20400;-48
2022/02/06 09:10:01;;;;;;;3.17;2.97;;;;;;;;;;5032472;28;20981;-48
2022/02/06 09:12:27;;;;;;;3.10;2.90;;;;;;;;;;5032831;28;20884;-48
2022/02/06 09:14:53;;;;;;;3.00;2.80;;;;;;;;;;5032811;28;20169;-48
2022/02/06 09:17:19;;;;;;;2.97;2.53;;;;;;;;;;5032710;28;20426;-48
2022/02/06 09:19:45;;;;;;;3.23;3.00;;;;;;;;;;5031323;28;20973;-48
2022/02/06 09:22:13;;;;;;;5.27;2.63;;;;;;;;;;5032417;28;20483;-48
2022/02/06 09:24:39;;;;;;;3.03;2.83;;;;;;;;;;5032516;28;20446;-47
2022/02/06 09:27:06;;;;;;;3.33;2.80;;;;;;;;;;5032518;28;20411;-48
2022/02/06 09:29:32;;;;;;;4.83;3.00;;;;;;;;;;5032077;28;20430;-47
2022/02/06 09:37:00;;;;;;;2.63;2.33;;;;;;;;;;5032700;28;20961;-47
2022/02/06 09:39:26;;;;;;;4.47;2.57;;;;;;;;;;5032313;28;20921;-48
2022/02/06 09:41:52;;;;;;;2.63;2.43;;;;;;;;;;5032407;28;20473;-48
2022/02/06 09:44:20;;;;;;;2.70;2.27;;;;;;;;;;5032299;28;20455;-48
2022/02/06 09:46:47;;;;;;;2.50;2.30;;;;;;;;;;5031836;28;20872;-48
2022/02/06 09:49:14;;;;;;;4.80;2.20;;;;;;;;;;5031092;28;20516;-47
2022/02/06 09:51:43;;;;;;;2.00;1.90;;;;;;;;;;5031981;28;20403;-47
2022/02/06 09:54:09;;;;;;;1.93;1.73;;;;;;;;;;5031897;28;20196;-48
2022/02/06 09:56:42;;;;;;;1.40;1.30;;;;;;;;;;5031869;28;21043;-47
2022/02/06 09:59:17;;;;;;;1.70;1.60;;;;;;;;;;5031641;28;20502;-48
2022/02/06 10:01:44;;;;;;;1.40;1.30;;;;;;;;;;5031065;28;20192;-48
2022/02/06 10:04:11;;;;;;;2.07;1.30;;;;;;;;;;5031641;28;20826;-47
2022/02/06 10:06:50;;;;;;;1.60;1.50;;;;;;;;;;5031641;28;20415;-47
2022/02/06 10:09:19;;;;;;;1.70;1.60;;;;;;;;;;5031398;28;20663;-47
2022/02/06 10:11:48;;;;;;;1.65;1.55;;;;;;;;;;5031601;28;20404;-48
2022/02/06 10:14:14;;;;;;;2.30;2.20;;;;;;;;;;5031687;28;20594;-47
2022/02/06 10:16:40;;;;;;;1.60;1.50;;;;;;;;;;5031577;28;20487;-47
2022/02/06 10:19:06;;;;;;;1.73;1.43;;;;;;;;;;5030233;28;20962;-48
2022/02/06 10:21:35;;;;;;;2.00;1.90;;;;;;;;;;5030803;28;20458;-47
2022/02/06 10:24:07;;;;;;;1.90;1.80;;;;;;;;;;5031245;28;20454;-47
2022/02/06 10:27:03;;;;;;;1.65;1.40;;;;;;;;;;5031501;28;20167;-47
2022/02/06 10:29:50;;;;;;;1.75;1.65;;;;;;;;;;5031055;28;20278;-47
2022/02/06 10:32:18;;;;;;;3.03;2.40;;;;;;;;;;5031103;28;20521;-47
2022/02/06 10:34:44;;;;;;;1.93;1.83;;;;;;;;;;5031117;28;20453;-47
2022/02/06 10:37:18;;;;;;;4.60;1.87;;;;;;;;;;5031270;28;20409;-47
2022/02/06 10:40:04;;;;;;;4.67;2.47;;;;;;;;;;5031053;28;20413;-47
2022/02/06 10:42:48;;;;;;;1.90;1.80;;;;;;;;;;5031270;28;20401;-47
2022/02/06 10:45:37;;;;;;;1.75;1.65;;;;;;;;;;5031308;28;20186;-47
2022/02/06 10:48:03;;;;;;;1.73;1.63;;;;;;;;;;5030080;28;20160;-47
2022/02/06 10:50:30;;;;;;;1.80;1.70;;;;;;;;;;5030942;28;20432;-47
2022/02/06 10:53:07;;;;;;;1.70;1.60;;;;;;;;;;5031003;28;20392;-47
2022/02/06 10:55:33;;;;;;;1.87;1.77;;;;;;;;;;5031129;28;20461;-47
2022/02/06 10:58:00;;;;;;;1.80;1.70;;;;;;;;;;5031262;28;20410;-47
2022/02/06 11:00:27;;;;;;;1.10;1.10;;;;;;;;;;5030934;28;20501;-47
2022/02/06 11:03:03;;;;;;;1.33;1.23;;;;;;;;;;5031067;28;20226;-47
2022/02/06 11:05:40;;;;;;;1.27;1.17;;;;;;;;;;5031098;28;20902;-47
2022/02/06 11:08:06;;;;;;;2.85;1.85;;;;;;;;;;5030965;28;20259;-47
2022/02/06 11:10:34;;;;;;;1.27;1.27;;;;;;;;;;5030681;28;20267;-47
2022/02/06 11:13:06;;;;;;;1.60;1.50;;;;;;;;;;5033610;28;20869;-47
2022/02/06 11:15:39;;;;;;;1.97;1.23;;;;;;;;;;5035084;28;20172;-47
2022/02/06 11:18:14;;;;;;;2.53;1.37;;;;;;;;;;5034835;28;20426;-47
2022/02/06 11:20:52;;;;;;;1.80;1.70;;;;;;;;;;5033850;28;20974;-47
2022/02/06 11:23:18;;;;;;;1.33;1.23;;;;;;;;;;5034681;28;20450;-47
2022/02/06 11:25:44;;;;;;;1.98;1.60;;;;;;;;;;5034724;28;20434;-47
2022/02/06 11:28:11;;;;;;;1.90;1.63;;;;;;;;;;5034689;28;20177;-46
2022/02/06 11:30:39;;;;;;;2.75;1.60;;;;;;;;;;5034402;28;20399;-46
2022/02/06 11:33:06;;;;;;;1.63;1.52;;;;;;;;;;5034397;28;20168;-46
2022/02/06 11:35:34;;;;;;;2.17;2.08;;;;;;;;;;5034329;28;20195;-47
2022/02/06 11:44:06;;;;;;;2.03;1.77;;;;;;;;;;5034367;28;20472;-47
2022/02/06 11:46:50;;;;;;;1.00;1.00;;;;;;;;;;4980567;28;20204;-46
2022/02/06 11:49:18;;;;;;;1.30;1.20;;;;;;;;;;5024414;28;21023;-47
2022/02/06 11:51:54;;;;;;;2.67;1.30;;;;;;;;;;5034153;28;20406;-46
2022/02/06 11:54:33;;;;;;;3.38;1.55;;;;;;;;;;5034296;28;20168;-46
2022/02/06 11:57:26;;;;;;;1.17;1.10;;;;;;;;;;5033779;28;20534;-46
2022/02/06 11:59:58;;;;;;;2.30;1.53;;;;;;;;;;5030850;28;20269;-46
2022/02/06 12:02:28;;;;;;;1.50;1.40;;;;;;;;;;5034355;28;20505;-46
2022/02/06 12:05:09;;;;;;;2.90;1.27;;;;;;;;;;5034136;28;20458;-46
2022/02/06 12:07:54;;;;;;;1.55;1.38;;;;;;;;;;5034267;28;20537;-46
2022/02/06 12:10:21;;;;;;;1.30;1.20;;;;;;;;;;5033932;28;20263;-46
2022/02/06 12:12:49;;;;;;;2.13;0.90;;;;;;;;;;5034032;28;20173;-46
2022/02/06 12:15:31;;;;;;;1.00;1.00;;;;;;;;;;5033928;28;20407;-46
2022/02/06 12:18:12;;;;;;;1.10;1.00;;;;;;;;;;5033924;28;20402;-46
2022/02/06 12:20:45;;;;;;;3.15;1.35;;;;;;;;;;5019804;28;20179;-46
2022/02/06 12:23:31;;;;;;;1.42;1.20;;;;;;;;;;5032862;28;20237;-46
2022/02/06 12:26:00;;;;;;;1.20;1.10;;;;;;;;;;5033637;28;20167;-46
2022/02/06 12:28:30;;;;;;;1.50;1.27;;;;;;;;;;5033517;28;21099;-46
2022/02/06 12:30:58;;;;;;;1.38;1.27;;;;;;;;;;5034032;28;20472;-45
2022/02/06 12:33:41;;;;;;;1.97;1.40;;;;;;;;;;5032542;28;20179;-45
2022/02/06 12:38:52;;;;;;;1.10;1.10;;;;;;;;;;5033206;28;20413;-47
2022/02/06 12:41:24;;;;;;;1.60;1.50;;;;;;;;;;5033363;28;20983;-46
2022/02/06 12:43:55;;;;;;;1.40;1.30;;;;;;;;;;5033197;28;20455;-45
2022/02/06 12:46:22;;;;;;;1.37;1.27;;;;;;;;;;5033212;28;20498;-46
2022/02/06 12:48:48;;;;;;;1.47;1.37;;;;;;;;;;5033216;28;20414;-45
2022/02/06 12:51:14;;;;;;;1.60;1.40;;;;;;;;;;5033013;28;20526;-44
2022/02/06 12:53:39;;;;;;;1.47;1.37;;;;;;;;;;5033148;28;20910;-45
2022/02/06 12:56:06;;;;;;;1.60;1.50;;;;;;;;;;5033053;28;20404;-46
2022/02/06 12:58:31;;;;;;;1.53;1.43;;;;;;;;;;5032944;28;20420;-46
2022/02/06 13:00:57;;;;;;;1.53;1.33;;;;;;;;;;5032782;28;20414;-45
2022/02/06 13:03:31;;;;;;;1.20;1.10;;;;;;;;;;5031662;28;20466;-44
2022/02/06 13:06:03;;;;;;;2.23;1.50;;;;;;;;;;5032241;28;20565;-45
2022/02/06 13:08:29;;;;;;;1.50;1.40;;;;;;;;;;5032911;28;20423;-45
2022/02/06 13:11:00;;;;;;;2.83;1.50;;;;;;;;;;5031998;28;20187;-47
2022/02/06 13:13:34;;;;;;;1.70;1.50;;;;;;;;;;5032794;28;20408;-44
2022/02/06 13:16:19;;;;;;;4.40;3.57;;;;;;;;;;5032688;28;20384;-45
2022/02/06 13:21:43;;;;;;;1.30;1.23;;;;;;;;;;5032750;28;20398;-45
2022/02/06 13:24:25;;;;;;;1.33;1.23;;;;;;;;;;5032424;28;20533;-45
2022/02/06 13:27:34;;;;;;;1.60;1.50;;;;;;;;;;5032829;28;20904;-44
2022/02/06 13:30:09;;;;;;;1.60;1.50;;;;;;;;;;5031972;28;20451;-45
2022/02/06 13:37:49;;;;;;;1.27;1.17;;;;;;;;;;5032530;28;20465;-44
2022/02/06 13:40:21;;;;;;;0.90;0.90;;;;;;;;;;5031801;28;20842;-45
2022/02/06 13:42:57;;;;;;;1.10;1.10;;;;;;;;;;5032133;28;20485;-44
2022/02/06 13:45:24;;;;;;;1.23;1.13;;;;;;;;;;5032072;28;20414;-45
2022/02/06 13:47:51;;;;;;;0.90;0.90;;;;;;;;;;5032114;28;20395;-44
2022/02/06 13:50:17;;;;;;;1.20;1.10;;;;;;;;;;5031764;28;20191;-45
2022/02/06 13:52:45;;;;;;;0.90;0.90;;;;;;;;;;5031940;28;20398;-45
2022/02/06 13:55:12;;;;;;;1.13;1.00;;;;;;;;;;5031838;28;20229;-46
2022/02/06 13:57:39;;;;;;;1.17;0.93;;;;;;;;;;5031929;28;20167;-44
2022/02/06 14:00:09;;;;;;;1.00;0.90;;;;;;;;;;5031497;28;20188;-44
2022/02/06 14:02:35;;;;;;;0.97;0.93;;;;;;;;;;5031745;28;20161;-44
2022/02/06 14:05:06;;;;;;;0.90;0.90;;;;;;;;;;5030774;28;21035;-45
2022/02/06 14:07:32;;;;;;;1.13;1.02;;;;;;;;;;5031065;28;20191;-45
2022/02/06 14:12:27;;;;;;;1.10;1.00;;;;;;;;;;5031637;28;20754;-45
2022/02/06 14:15:00;;;;;;;0.93;0.93;;;;;;;;;;5031365;28;20167;-45
2022/02/06 14:17:28;;;;;;;3.35;1.30;;;;;;;;;;5031534;28;20448;-45
2022/02/06 14:19:56;;;;;;;1.38;1.13;;;;;;;;;;5031332;28;20183;-45
2022/02/06 14:22:27;;;;;;;0.90;0.90;;;;;;;;;;5031487;28;20674;-45
2022/02/06 14:24:54;;;;;;;1.50;1.40;;;;;;;;;;5031439;28;20265;-44
2022/02/06 14:27:27;;;;;;;1.70;1.60;;;;;;;;;;5031525;28;20165;-44
2022/02/06 14:30:00;;;;;;;2.00;1.80;;;;;;;;;;5031142;28;20334;-45
2022/02/06 14:32:26;;;;;;;3.15;2.28;;;;;;;;;;5031474;28;20164;-45
2022/02/06 14:34:59;;;;;;;2.50;2.07;;;;;;;;;;5029695;28;20531;-44
2022/02/06 14:37:28;;;;;;;2.45;1.98;;;;;;;;;;5031479;28;20407;-45
2022/02/06 14:40:13;;;;;;;2.58;2.38;;;;;;;;;;5031168;28;20194;-45
2022/02/06 14:42:49;;;;;;;3.65;3.33;;;;;;;;;;5031326;28;20177;-44
2022/02/06 14:45:15;;;;;;;4.05;3.20;;;;;;;;;;5031131;28;20218;-46
2022/02/06 14:47:41;;;;;;;3.53;3.20;;;;;;;;;;5030540;28;20678;-45
2022/02/06 14:50:14;;;;;;;4.10;3.70;;;;;;;;;;5030993;28;20458;-45
2022/02/06 14:52:40;;;;;;;4.60;3.23;;;;;;;;;;5030978;28;20430;-45
2022/02/06 14:55:06;;;;;;;2.87;2.63;;;;;;;;;;5031105;28;20878;-44
2022/02/06 14:57:33;;;;;;;3.45;2.85;;;;;;;;;;5031057;28;20879;-45
2022/02/06 14:59:59;;;;;;;1.83;1.73;;;;;;;;;;5030240;28;20184;-45
2022/02/06 15:02:25;;;;;;;2.17;1.98;;;;;;;;;;5030854;28;20168;-45
2022/02/06 15:04:51;;;;;;;2.72;2.15;;;;;;;;;;5029877;28;20683;-45
2022/02/06 15:07:17;;;;;;;2.70;1.70;;;;;;;;;;5030798;28;20178;-45
2022/02/06 15:09:45;;;;;;;2.73;1.60;;;;;;;;;;5030519;28;20437;-45
2022/02/06 15:12:11;;;;;;;5.97;2.40;;;;;;;;;;5030797;28;20402;-45
2022/02/06 15:14:37;;;;;;;3.33;1.95;;;;;;;;;;5030867;28;20252;-45
2022/02/06 15:17:03;;;;;;;1.67;1.58;;;;;;;;;;5030775;28;20168;-46
2022/02/06 15:19:31;;;;;;;2.72;1.90;;;;;;;;;;5030498;28;20191;-45
2022/02/06 15:21:58;;;;;;;2.17;1.65;;;;;;;;;;5030692;28;20248;-45
2022/02/06 15:24:24;;;;;;;5.35;2.20;;;;;;;;;;5030397;28;20245;-45
2022/02/06 15:26:50;;;;;;;2.13;2.03;;;;;;;;;;5030722;28;20180;-45
2022/02/06 15:29:16;;;;;;;2.83;2.47;;;;;;;;;;5030297;28;20199;-45
2022/02/06 15:31:43;;;;;;;8.32;2.90;;;;;;;;;;5029504;28;20178;-45
2022/02/06 15:34:09;;;;;;;3.17;2.88;;;;;;;;;;5030656;28;20175;-45
2022/02/06 15:36:38;;;;;;;3.97;2.70;;;;;;;;;;5030713;28;20183;-45
2022/02/06 15:39:20;;;;;;;4.53;2.50;;;;;;;;;;5030485;28;20444;-45
2022/02/06 15:41:49;;;;;;;6.13;2.83;;;;;;;;;;5030668;28;20167;-45
2022/02/06 15:44:15;;;;;;;3.70;2.95;;;;;;;;;;5030560;28;20187;-45
2022/02/06 15:46:41;;;;;;;2.75;2.55;;;;;;;;;;5030675;28;20168;-45
2022/02/06 15:49:07;;;;;;;2.90;2.37;;;;;;;;;;5030762;28;20706;-44
2022/02/06 15:51:33;;;;;;;7.53;2.60;;;;;;;;;;5030602;28;20902;-45
2022/02/06 15:53:59;;;;;;;5.80;2.50;;;;;;;;;;5021638;28;20937;-45
2022/02/06 15:56:25;;;;;;;5.10;2.73;;;;;;;;;;5029990;28;20496;-45
2022/02/06 15:58:51;;;;;;;2.40;2.20;;;;;;;;;;5031281;28;20422;-45
2022/02/06 16:01:17;;;;;;;1.93;1.83;;;;;;;;;;5034082;28;20406;-45
2022/02/06 16:03:43;;;;;;;5.07;1.70;;;;;;;;;;5032060;28;20469;-46
2022/02/06 16:06:09;;;;;;;2.50;2.30;;;;;;;;;;5034044;28;20417;-45
2022/02/06 16:08:36;;;;;;;2.37;1.67;;;;;;;;;;5033661;28;20434;-45
2022/02/06 16:11:01;;;;;;;5.28;2.03;;;;;;;;;;5033766;28;20398;-46
2022/02/06 16:13:27;;;;;;;1.70;1.60;;;;;;;;;;5033902;28;20175;-44
2022/02/06 16:15:53;;;;;;;2.60;1.60;;;;;;;;;;5032827;28;20414;-44
2022/02/06 16:18:19;;;;;;;2.20;2.00;;;;;;;;;;5033736;28;20446;-45
2022/02/06 16:20:45;;;;;;;1.83;1.73;;;;;;;;;;5033585;28;20406;-45
2022/02/06 16:23:12;;;;;;;2.00;1.77;;;;;;;;;;5033525;28;20411;-45
2022/02/06 16:25:38;;;;;;;3.70;2.33;;;;;;;;;;5033627;28;20427;-46
2022/02/06 16:28:04;;;;;;;1.92;1.83;;;;;;;;;;5033721;28;20886;-45
2022/02/06 16:30:30;;;;;;;7.03;3.35;;;;;;;;;;5033126;28;20294;-45
2022/02/06 16:32:56;;;;;;;5.70;2.45;;;;;;;;;;5032208;28;20258;-46
2022/02/06 16:35:22;;;;;;;9.13;3.13;;;;;;;;;;5033457;28;20214;-46
2022/02/06 16:37:48;;;;;;;7.50;2.57;;;;;;;;;;5033424;28;20402;-45
2022/02/06 16:40:14;;;;;;;6.53;2.92;;;;;;;;;;5032909;28;20934;-45
2022/02/06 16:42:43;;;;;;;2.50;2.30;;;;;;;;;;5033267;28;20690;-44
2022/02/06 16:45:09;;;;;;;3.83;2.03;;;;;;;;;;5033291;28;20257;-46
2022/02/06 16:47:35;;;;;;;3.80;2.80;;;;;;;;;;5015649;28;20191;-46
2022/02/06 16:50:01;;;;;;;2.20;2.00;;;;;;;;;;5033185;28;20423;-47
2022/02/06 16:52:27;;;;;;;2.10;1.90;;;;;;;;;;5033178;28;21098;-45
2022/02/06 16:54:53;;;;;;;3.20;2.38;;;;;;;;;;5033465;28;20172;-45
2022/02/06 16:57:19;;;;;;;3.03;2.00;;;;;;;;;;5033058;28;20176;-45
2022/02/06 16:59:45;;;;;;;5.20;1.90;;;;;;;;;;5033120;28;20599;-45
2022/02/06 17:02:11;;;;;;;3.10;2.13;;;;;;;;;;5032045;28;20256;-46
2022/02/06 17:04:37;;;;;;;2.00;1.90;;;;;;;;;;5032769;28;20453;-45
2022/02/06 17:07:03;;;;;;;4.23;2.07;;;;;;;;;;5032947;28;20468;-45
2022/02/06 17:09:29;;;;;;;2.60;2.25;;;;;;;;;;5032170;28;20453;-45
2022/02/06 17:11:56;;;;;;;5.53;2.17;;;;;;;;;;5032632;28;20168;-46
2022/02/06 17:14:22;;;;;;;2.28;2.08;;;;;;;;;;5032797;28;20453;-45
2022/02/06 17:16:48;;;;;;;2.35;2.15;;;;;;;;;;5032800;28;20632;-46
2022/02/06 17:19:15;;;;;;;4.93;3.28;;;;;;;;;;5032331;28;20226;-45
2022/02/06 17:21:44;;;;;;;2.10;2.00;;;;;;;;;;5032584;28;20194;-46
2022/02/06 17:24:10;;;;;;;5.90;2.10;;;;;;;;;;5032604;28;20191;-45
2022/02/06 17:26:36;;;;;;;3.03;2.60;;;;;;;;;;5032418;28;20254;-46
2022/02/06 17:29:02;;;;;;;4.73;2.47;;;;;;;;;;5032129;28;20750;-46
2022/02/06 17:31:28;;;;;;;6.15;3.22;;;;;;;;;;5031623;28;20418;-46
2022/02/06 17:33:54;;;;;;;3.20;2.20;;;;;;;;;;5032334;28;20243;-46
2022/02/06 17:36:20;;;;;;;2.87;2.67;;;;;;;;;;5032366;28;20951;-46